createdAt,value
2022-09-07T00:01:15.215Z,97590.86
2022-09-07T00:03:43.253Z,97584.46
2022-09-07T00:06:13.106Z,97583.23
2022-09-07T00:08:43.845Z,97586.36
2022-09-07T00:11:15.978Z,97586.84
2022-09-07T00:13:46.817Z,97581.39
2022-09-07T00:16:20.269Z,97581.63
2022-09-07T00:18:48.855Z,97582.14
2022-09-07T00:21:18.029Z,97586.27
2022-09-07T00:23:48.034Z,97586.04
2022-09-07T00:26:22.804Z,97582.86
2022-09-07T00:28:52.257Z,97577.60
2022-09-07T00:31:23.676Z,97575.13
2022-09-07T00:33:53.518Z,97578.04
2022-09-07T00:36:22.832Z,97576.84
2022-09-07T00:38:52.013Z,97574.71
2022-09-07T00:41:22.273Z,97573.27
2022-09-07T00:44:11.776Z,97572.83
2022-09-07T00:46:39.841Z,97572.16
2022-09-07T00:49:13.168Z,97571.00
2022-09-07T00:51:46.300Z,97570.45
2022-09-07T00:54:19.500Z,97568.91
2022-09-07T00:56:50.422Z,97566.13
2022-09-07T00:59:23.776Z,97560.40
2022-09-07T01:01:52.072Z,97565.23
2022-09-07T01:04:22.520Z,97561.80
2022-09-07T01:06:50.679Z,97564.15
2022-09-07T01:09:23.092Z,97564.52
2022-09-07T01:11:53.842Z,97559.48
2022-09-07T01:14:28.184Z,97561.73
2022-09-07T01:17:02.065Z,97564.00
2022-09-07T01:19:54.708Z,97569.16
2022-09-07T01:22:41.729Z,97571.69
2022-09-07T01:25:24.191Z,97567.42
2022-09-07T01:28:12.170Z,97571.12
2022-09-07T01:30:46.420Z,97570.61
2022-09-07T01:33:23.252Z,97571.45
2022-09-07T01:36:31.098Z,97571.58
2022-09-07T01:39:04.244Z,97567.02
2022-09-07T01:41:47.320Z,97562.59
2022-09-07T01:44:18.400Z,97564.21
2022-09-07T01:47:14.129Z,97559.57
2022-09-07T01:49:54.709Z,97559.73
2022-09-07T01:52:32.228Z,97559.97
2022-09-07T01:55:11.098Z,97556.33
2022-09-07T01:57:46.730Z,97551.25
2022-09-07T02:00:18.650Z,97548.44
2022-09-07T02:02:57.972Z,97548.77
2022-09-07T02:05:40.873Z,97545.00
2022-09-07T02:08:19.573Z,97544.94
2022-09-07T02:10:59.967Z,97546.22
2022-09-07T02:14:14.871Z,97544.48
2022-09-07T02:17:07.360Z,97542.96
2022-09-07T02:19:41.333Z,97540.41
2022-09-07T02:22:16.258Z,97546.27
2022-09-07T02:24:50.330Z,97550.55
2022-09-07T02:27:27.257Z,97563.02
2022-09-07T02:29:55.904Z,97608.35
2022-09-07T02:32:23.987Z,97637.98
2022-09-07T02:34:52.103Z,97628.59
2022-09-07T02:37:21.658Z,97596.02
2022-09-07T02:39:49.707Z,97622.25
2022-09-07T02:42:17.762Z,97621.16
2022-09-07T02:44:46.808Z,97602.77
2022-09-07T02:47:26.020Z,97605.18
2022-09-07T02:50:23.357Z,97602.30
2022-09-07T02:52:57.438Z,97600.69
2022-09-07T02:56:02.814Z,97595.63
2022-09-07T02:58:55.966Z,97584.32
2022-09-07T03:01:36.429Z,97572.67
2022-09-07T03:04:36.290Z,97572.16
2022-09-07T03:07:10.870Z,97575.08
2022-09-07T03:09:43.756Z,97572.91
2022-09-07T03:12:13.145Z,97569.45
2022-09-07T03:14:42.813Z,97565.80
2022-09-07T03:17:11.653Z,97564.76
2022-09-07T03:19:39.809Z,97563.45
2022-09-07T03:22:08.267Z,97557.02
2022-09-07T03:24:37.289Z,97558.89
2022-09-07T03:27:05.638Z,97559.06
2022-09-07T03:29:33.723Z,97558.88
2022-09-07T03:32:01.883Z,97559.13
2022-09-07T03:34:30.138Z,97557.55
2022-09-07T03:36:58.217Z,97562.02
2022-09-07T03:39:26.764Z,97566.41
2022-09-07T03:41:54.823Z,97569.36
2022-09-07T03:44:22.837Z,97564.81
2022-09-07T03:46:50.879Z,97561.27
2022-09-07T03:49:19.284Z,97561.44
2022-09-07T03:51:47.381Z,97564.02
2022-09-07T03:54:15.451Z,97561.95
2022-09-07T03:56:43.499Z,97560.84
2022-09-07T03:59:11.600Z,97565.27
2022-09-07T04:01:40.312Z,97569.45
2022-09-07T04:04:09.359Z,97572.79
2022-09-07T04:06:37.500Z,97575.70
2022-09-07T04:09:08.310Z,97572.20
2022-09-07T04:11:36.450Z,97576.48
2022-09-07T04:14:04.644Z,97575.55
2022-09-07T04:16:33.540Z,97575.34
2022-09-07T04:19:01.770Z,97579.56
2022-09-07T04:21:31.547Z,97577.50
2022-09-07T04:24:00.222Z,97575.77
2022-09-07T04:26:31.742Z,97575.27
2022-09-07T04:29:03.711Z,97587.98
2022-09-07T04:31:34.016Z,97597.59
2022-09-07T04:34:02.975Z,97604.14
2022-09-07T04:36:31.400Z,97609.42
2022-09-07T04:39:02.411Z,97606.15
2022-09-07T04:41:32.696Z,97608.06
2022-09-07T04:44:02.679Z,97614.26
2022-09-07T04:46:36.437Z,97614.38
2022-09-07T04:49:09.483Z,97610.60
2022-09-07T04:51:39.248Z,97610.58
2022-09-07T04:54:07.432Z,97611.61
2022-09-07T04:56:35.807Z,97612.52
2022-09-07T04:59:04.439Z,97621.44
2022-09-07T05:01:32.701Z,97621.38
2022-09-07T05:04:01.945Z,97617.61
2022-09-07T05:06:30.646Z,97615.23
2022-09-07T05:08:59.329Z,97616.73
2022-09-07T05:11:29.674Z,97615.34
2022-09-07T05:14:00.157Z,97614.36
2022-09-07T05:16:29.411Z,97621.89
2022-09-07T05:19:00.159Z,97618.31
2022-09-07T05:21:31.383Z,97613.55
2022-09-07T05:24:00.930Z,97615.42
2022-09-07T05:26:31.460Z,97608.00
2022-09-07T05:31:52.364Z,97600.55
2022-09-07T05:36:56.499Z,97600.17
2022-09-07T05:39:24.979Z,97605.05
2022-09-07T05:41:53.086Z,97610.39
2022-09-07T05:47:09.825Z,97608.19
2022-09-07T05:49:38.296Z,97601.15
2022-09-07T05:52:07.010Z,97604.98
2022-09-07T05:54:35.249Z,97601.39
2022-09-07T05:57:04.107Z,97603.19
2022-09-07T05:59:32.199Z,97611.19
2022-09-07T06:02:00.390Z,97626.77
2022-09-07T06:04:28.502Z,97636.44
2022-09-07T06:07:20.619Z,97639.64
2022-09-07T06:12:33.969Z,97625.16
2022-09-07T06:15:02.050Z,97619.02
2022-09-07T06:17:31.355Z,97641.01
2022-09-07T06:19:59.383Z,97650.67
2022-09-07T06:22:31.031Z,97651.31
2022-09-07T06:24:59.719Z,97648.73
2022-09-07T06:27:28.647Z,97652.21
2022-09-07T06:29:57.108Z,97656.45
2022-09-07T06:35:14.876Z,97647.35
2022-09-07T06:37:43.010Z,97641.62
2022-09-07T06:40:12.456Z,97631.95
2022-09-07T06:42:40.916Z,97630.83
2022-09-07T06:45:11.642Z,97620.42
2022-09-07T06:47:40.410Z,97610.70
2022-09-07T06:50:09.642Z,97602.23
2022-09-07T06:55:28.021Z,97615.19
2022-09-07T06:57:56.516Z,97621.67
2022-09-07T07:00:24.767Z,97622.06
2022-09-07T07:02:53.159Z,97633.98
2022-09-07T07:05:21.251Z,97643.38
2022-09-07T07:07:49.259Z,97647.20
2022-09-07T07:10:21.006Z,97653.56
2022-09-07T07:12:57.709Z,97650.79
2022-09-07T07:15:28.828Z,97642.79
2022-09-07T07:18:02.587Z,97650.73
2022-09-07T07:20:42.707Z,97650.48
2022-09-07T07:23:12.315Z,97647.54
2022-09-07T07:25:40.676Z,97649.56
2022-09-07T07:30:59.506Z,97644.83
2022-09-07T07:33:33.214Z,97644.50
2022-09-07T07:36:16.856Z,97653.98
2022-09-07T07:39:03.077Z,97654.87
2022-09-07T07:44:21.156Z,97645.58
2022-09-07T07:46:52.387Z,97645.76
2022-09-07T07:49:20.681Z,97640.40
2022-09-07T07:54:37.220Z,97651.29
2022-09-07T07:57:06.357Z,97651.81
2022-09-07T07:59:35.448Z,97646.84
2022-09-07T08:02:05.821Z,97648.11
2022-09-07T08:04:35.500Z,97650.20
2022-09-07T08:07:09.473Z,97650.77
2022-09-07T08:09:43.728Z,97659.69
2022-09-07T08:12:16.347Z,97660.48
2022-09-07T08:14:46.644Z,97658.39
2022-09-07T08:17:17.189Z,97659.19
2022-09-07T08:19:45.405Z,97661.20
2022-09-07T08:22:13.583Z,97664.71
2022-09-07T08:24:41.925Z,97664.91
2022-09-07T08:27:09.918Z,97666.91
2022-09-07T08:29:38.089Z,97669.65
2022-09-07T08:32:07.019Z,97672.57
2022-09-07T08:34:38.197Z,97676.47
2022-09-07T08:37:06.243Z,97676.48
2022-09-07T08:39:34.273Z,97679.96
2022-09-07T08:42:34.509Z,97681.56
2022-09-07T08:45:21.567Z,97684.20
2022-09-07T08:47:51.576Z,97687.34
2022-09-07T08:50:33.902Z,97683.58
2022-09-07T08:53:12.572Z,97687.16
2022-09-07T08:55:58.428Z,97683.04
2022-09-07T08:59:03.216Z,97683.42
2022-09-07T09:01:41.157Z,97683.33
2022-09-07T09:04:29.182Z,97680.42
2022-09-07T09:07:14.295Z,97672.00
2022-09-07T09:10:22.038Z,97673.94
2022-09-07T09:12:55.188Z,97667.74
2022-09-07T09:15:32.443Z,97662.21
2022-09-07T09:18:00.264Z,97655.03
2022-09-07T09:20:46.510Z,97655.21
2022-09-07T09:23:17.405Z,97648.54
2022-09-07T09:25:55.189Z,97648.77
2022-09-07T09:28:25.526Z,97647.54
2022-09-07T09:30:56.229Z,97646.41
2022-09-07T09:33:28.009Z,97645.63
2022-09-07T09:36:31.711Z,97647.11
2022-09-07T09:39:00.800Z,97651.37
2022-09-07T09:41:39.361Z,97651.79
2022-09-07T09:44:15.779Z,97656.41
2022-09-07T09:47:29.459Z,97658.66
2022-09-07T09:49:41.066Z,97657.70
2022-09-07T09:52:43.421Z,97655.34
2022-09-07T09:55:34.593Z,97656.21
2022-09-07T10:06:22.241Z,97654.89
2022-09-07T10:08:59.754Z,97652.06
2022-09-07T10:12:05.599Z,97647.45
2022-09-07T10:14:36.403Z,97643.52
2022-09-07T10:17:33.482Z,97637.65
2022-09-07T10:20:16.497Z,97635.24
2022-09-07T10:22:50.896Z,97632.33
2022-09-07T10:25:34.987Z,97637.04
2022-09-07T10:28:09.891Z,97631.94
2022-09-07T10:31:03.234Z,97638.14
2022-09-07T10:37:02.863Z,97635.73
2022-09-07T10:40:04.226Z,97628.55
2022-09-07T10:42:40.239Z,97626.09
2022-09-07T10:45:08.478Z,97623.11
2022-09-07T10:48:12.784Z,97611.27
2022-09-07T10:50:51.560Z,97617.02
2022-09-07T10:53:40.150Z,97617.95
2022-09-07T10:56:28.150Z,97620.10
2022-09-07T11:02:25.034Z,97611.20
2022-09-07T11:05:31.072Z,97608.16
2022-09-07T11:08:14.626Z,97607.61
2022-09-07T11:11:15.499Z,97603.81
2022-09-07T11:14:09.324Z,97591.98
2022-09-07T11:16:54.530Z,97593.05
2022-09-07T11:19:44.345Z,97585.39
2022-09-07T11:22:19.664Z,97581.37
2022-09-07T11:27:55.212Z,97575.02
2022-09-07T11:30:35.875Z,97574.91
2022-09-07T11:33:28.187Z,97574.00
2022-09-07T11:36:18.757Z,97574.27
2022-09-07T11:38:56.103Z,97574.31
2022-09-07T11:41:36.775Z,97575.70
2022-09-07T11:44:10.030Z,97571.13
2022-09-07T11:46:46.423Z,97568.70
2022-09-07T11:49:22.531Z,97565.73
2022-09-07T11:51:55.476Z,97566.19
2022-09-07T11:54:33.929Z,97561.09
2022-09-07T11:57:39.749Z,97559.67
2022-09-07T12:00:12.208Z,97561.51
2022-09-07T12:03:22.655Z,97551.49
2022-09-07T12:06:12.887Z,97544.42
2022-09-07T12:08:51.818Z,97546.08
2022-09-07T12:11:31.883Z,97543.38
2022-09-07T12:14:16.494Z,97539.70
2022-09-07T12:17:14.418Z,97539.75
2022-09-07T12:19:42.859Z,97546.48
2022-09-07T12:22:23.471Z,97540.52
2022-09-07T12:24:53.958Z,97533.92
2022-09-07T12:27:22.170Z,97531.08
2022-09-07T12:30:01.350Z,97525.56
2022-09-07T12:32:55.814Z,97525.73
2022-09-07T12:35:34.003Z,97528.57
2022-09-07T12:38:03.414Z,97532.73
2022-09-07T12:40:32.286Z,97526.86
2022-09-07T12:43:48.222Z,97528.21
2022-09-07T12:46:39.444Z,97523.48
2022-09-07T12:49:48.643Z,97520.05
2022-09-07T12:52:51.881Z,97516.41
2022-09-07T12:56:16.019Z,97518.24
2022-09-07T12:58:59.576Z,97513.35
2022-09-07T13:01:44.402Z,97509.78
2022-09-07T13:04:44.483Z,97510.11
2022-09-07T13:07:39.007Z,97507.21
2022-09-07T13:10:37.952Z,97509.14
2022-09-07T13:13:15.133Z,97507.84
2022-09-07T13:15:51.664Z,97508.48
2022-09-07T13:18:25.941Z,97513.02
2022-09-07T13:21:09.024Z,97513.66
2022-09-07T13:24:45.590Z,97516.81
2022-09-07T13:27:20.716Z,97515.47
2022-09-07T13:30:16.805Z,97513.44
2022-09-07T13:35:37.243Z,97513.17
2022-09-07T13:38:05.832Z,97508.03
2022-09-07T13:40:38.093Z,97501.77
2022-09-07T13:43:18.260Z,97498.91
2022-09-07T13:45:55.076Z,97498.44
2022-09-07T13:48:42.511Z,97497.47
2022-09-07T13:51:38.484Z,97490.98
2022-09-07T13:54:15.608Z,97491.30
2022-09-07T13:57:11.205Z,97496.94
2022-09-07T13:59:42.857Z,97491.41
2022-09-07T14:02:28.483Z,97495.95
2022-09-07T14:05:00.468Z,97498.54
2022-09-07T14:07:32.674Z,97492.75
2022-09-07T14:10:05.046Z,97491.08
2022-09-07T14:12:42.631Z,97492.48
2022-09-07T14:15:27.731Z,97492.06
2022-09-07T14:18:12.004Z,97490.70
2022-09-07T14:20:49.829Z,97491.84
2022-09-07T14:23:32.326Z,97490.66
2022-09-07T14:26:19.876Z,97491.36
2022-09-07T14:28:50.358Z,97493.84
2022-09-07T14:31:20.714Z,97494.92
2022-09-07T14:33:55.233Z,97502.55
2022-09-07T14:36:48.255Z,97501.36
2022-09-07T14:39:18.998Z,97494.98
2022-09-07T14:41:47.744Z,97498.22
2022-09-07T14:44:38.720Z,97493.91
2022-09-07T14:47:21.861Z,97496.65
2022-09-07T14:49:55.995Z,97491.89
2022-09-07T14:55:42.832Z,97481.84
2022-09-07T14:58:22.852Z,97476.27
2022-09-07T15:04:01.473Z,97470.70
2022-09-07T15:09:37.461Z,97466.23
2022-09-07T15:12:15.023Z,97458.02
2022-09-07T15:14:43.207Z,97458.84
2022-09-07T15:17:46.434Z,97459.32
2022-09-07T15:20:45.746Z,97457.91
2022-09-07T15:23:16.128Z,97457.31
2022-09-07T15:25:53.579Z,97456.65
2022-09-07T15:34:12.599Z,97447.38
2022-09-07T15:36:43.692Z,97449.38
2022-09-07T15:39:19.228Z,97451.21
2022-09-07T15:41:47.787Z,97452.11
2022-09-07T15:44:21.563Z,97451.64
2022-09-07T15:49:47.385Z,97459.95
2022-09-07T15:52:18.308Z,97459.15
2022-09-07T15:54:46.971Z,97461.99
2022-09-07T16:00:07.168Z,97461.77
2022-09-07T16:05:31.331Z,97462.09
2022-09-07T16:10:54.250Z,97460.99
2022-09-07T16:13:24.533Z,97461.27
2022-09-07T16:15:53.069Z,97454.89
2022-09-07T16:18:21.062Z,97456.07
2022-09-07T16:20:52.611Z,97459.98
2022-09-07T16:23:21.316Z,97457.21
2022-09-07T16:25:58.019Z,97457.73
2022-09-07T16:28:27.382Z,97456.26
2022-09-07T16:30:56.543Z,97455.34
2022-09-07T16:33:33.163Z,97452.71
2022-09-07T16:36:14.503Z,97452.39
2022-09-07T16:38:46.009Z,97452.42
2022-09-07T16:41:39.625Z,97449.70
2022-09-07T16:44:08.060Z,97448.45
2022-09-07T16:46:36.135Z,97447.48
2022-09-07T16:49:05.711Z,97445.73
2022-09-07T16:51:34.336Z,97445.37
2022-09-07T16:54:03.330Z,97448.54
2022-09-07T16:56:38.327Z,97444.92
2022-09-07T16:59:11.688Z,97451.25
2022-09-07T17:01:39.781Z,97453.34
2022-09-07T17:04:10.942Z,97453.77
2022-09-07T17:06:40.513Z,97455.73
2022-09-07T17:09:08.977Z,97452.80
2022-09-07T17:11:37.517Z,97454.27
2022-09-07T17:14:06.798Z,97459.23
2022-09-07T17:16:38.383Z,97460.00
2022-09-07T17:21:57.661Z,97460.94
2022-09-07T17:24:25.796Z,97465.06
2022-09-07T17:26:53.721Z,97466.73
2022-09-07T17:29:22.130Z,97465.52
2022-09-07T17:34:38.174Z,97467.29
2022-09-07T17:37:06.474Z,97469.86
2022-09-07T17:39:34.414Z,97472.61
2022-09-07T17:42:02.424Z,97474.29
2022-09-07T17:44:35.860Z,97475.25
2022-09-07T17:47:06.089Z,97480.02
2022-09-07T17:49:34.443Z,97485.04
2022-09-07T17:52:02.670Z,97484.09
2022-09-07T17:54:30.701Z,97485.21
2022-09-07T17:56:58.963Z,97484.57
2022-09-07T18:02:14.993Z,97493.14
2022-09-07T18:04:43.127Z,97499.63
2022-09-07T18:07:11.114Z,97497.52
2022-09-07T18:09:39.330Z,97499.13
2022-09-07T18:12:07.626Z,97501.13
2022-09-07T18:14:35.579Z,97504.39
2022-09-07T18:17:05.482Z,97509.83
2022-09-07T18:19:33.624Z,97512.92
2022-09-07T18:22:03.908Z,97513.27
2022-09-07T18:24:32.074Z,97511.10
2022-09-07T18:27:00.089Z,97510.95
2022-09-07T18:29:33.039Z,97515.44
2022-09-07T18:32:07.997Z,97517.41
2022-09-07T18:34:40.628Z,97513.55
2022-09-07T18:37:12.297Z,97512.49
2022-09-07T18:39:40.840Z,97506.48
2022-09-07T18:42:09.958Z,97505.98
2022-09-07T18:47:29.149Z,97503.19
2022-09-07T18:49:58.689Z,97509.14
2022-09-07T18:55:16.379Z,97502.19
2022-09-07T18:57:45.012Z,97504.91
2022-09-07T19:00:14.357Z,97505.56
2022-09-07T19:02:42.384Z,97506.83
2022-09-07T19:07:59.819Z,97507.98
2022-09-07T19:10:27.845Z,97511.79
2022-09-07T19:12:56.673Z,97506.58
2022-09-07T19:15:24.600Z,97504.86
2022-09-07T19:17:54.759Z,97500.86
2022-09-07T19:20:29.449Z,97501.00
2022-09-07T19:23:01.592Z,97499.35
2022-09-07T19:25:31.300Z,97495.38
2022-09-07T19:28:00.637Z,97499.91
2022-09-07T19:30:30.981Z,97499.45
2022-09-07T19:33:04.194Z,97497.63
2022-09-07T19:35:35.799Z,97495.16
2022-09-07T19:38:04.305Z,97495.36
2022-09-07T19:40:32.216Z,97492.44
2022-09-07T19:43:00.190Z,97489.05
2022-09-07T19:45:28.686Z,97492.45
2022-09-07T19:47:56.698Z,97492.89
2022-09-07T19:50:24.747Z,97500.20
2022-09-07T19:52:52.722Z,97496.79
2022-09-07T19:55:20.699Z,97499.02
2022-09-07T19:57:50.710Z,97496.27
2022-09-07T20:00:19.394Z,97494.61
2022-09-07T20:02:49.931Z,97493.64
2022-09-07T20:05:19.393Z,97493.81
2022-09-07T20:07:47.360Z,97494.54
2022-09-07T20:10:16.128Z,97491.30
2022-09-07T20:12:44.693Z,97489.08
2022-09-07T20:15:12.696Z,97486.17
2022-09-07T20:17:40.598Z,97488.52
2022-09-07T20:20:09.017Z,97486.28
2022-09-07T20:22:37.577Z,97487.61
2022-09-07T20:25:08.303Z,97484.47
2022-09-07T20:27:38.501Z,97487.03
2022-09-07T20:30:07.443Z,97483.33
2022-09-07T20:32:35.719Z,97487.16
2022-09-07T20:35:05.053Z,97489.68
2022-09-07T20:37:34.368Z,97487.87
2022-09-07T20:40:02.786Z,97491.13
2022-09-07T20:42:30.819Z,97491.73
2022-09-07T20:44:58.853Z,97495.86
2022-09-07T20:47:26.901Z,97504.98
2022-09-07T20:49:55.019Z,97505.05
2022-09-07T20:52:23.320Z,97512.17
2022-09-07T20:54:51.327Z,97509.94
2022-09-07T20:57:19.481Z,97505.38
2022-09-07T20:59:47.427Z,97505.50
2022-09-07T21:02:15.451Z,97504.52
2022-09-07T21:04:43.486Z,97504.59
2022-09-07T21:07:11.451Z,97503.29
2022-09-07T21:09:39.478Z,97504.32
2022-09-07T21:12:07.626Z,97503.23
2022-09-07T21:14:35.768Z,97500.59
2022-09-07T21:17:03.779Z,97504.33
2022-09-07T21:19:31.903Z,97505.60
2022-09-07T21:21:59.924Z,97503.86
2022-09-07T21:24:27.866Z,97502.22
2022-09-07T21:26:55.856Z,97499.53
2022-09-07T21:29:25.956Z,97496.21
2022-09-07T21:31:55.196Z,97496.62
2022-09-07T21:34:23.675Z,97492.59
2022-09-07T21:36:52.761Z,97494.83
2022-09-07T21:39:21.720Z,97494.21
2022-09-07T21:41:49.742Z,97492.96
2022-09-07T21:44:17.833Z,97492.60
2022-09-07T21:46:46.239Z,97494.17
2022-09-07T21:49:14.262Z,97490.08
2022-09-07T21:51:42.251Z,97490.86
2022-09-07T21:54:10.273Z,97486.14
2022-09-07T21:56:40.185Z,97482.19
2022-09-07T21:59:11.177Z,97483.74
2022-09-07T22:01:39.815Z,97486.94
2022-09-07T22:04:07.905Z,97484.98
2022-09-07T22:06:35.965Z,97482.33
2022-09-07T22:09:05.174Z,97479.73
2022-09-07T22:11:33.194Z,97479.99
2022-09-07T22:14:03.730Z,97478.36
2022-09-07T22:16:34.257Z,97477.63
2022-09-07T22:19:02.519Z,97475.66
2022-09-07T22:21:31.331Z,97476.19
2022-09-07T22:24:02.040Z,97473.93
2022-09-07T22:26:32.926Z,97476.98
2022-09-07T22:29:00.858Z,97469.16
2022-09-07T22:31:39.023Z,97464.52
2022-09-07T22:34:09.386Z,97463.34
2022-09-07T22:36:43.520Z,97465.23
2022-09-07T22:39:17.417Z,97465.63
2022-09-07T22:41:47.396Z,97464.89
2022-09-07T22:44:18.418Z,97467.58
2022-09-07T22:46:47.699Z,97464.29
2022-09-07T22:49:17.125Z,97466.31
2022-09-07T22:51:45.939Z,97467.67
2022-09-07T22:54:14.320Z,97465.95
2022-09-07T22:56:42.832Z,97462.39
2022-09-07T22:59:12.444Z,97456.88
2022-09-07T23:01:41.266Z,97454.63
2022-09-07T23:04:10.978Z,97453.59
2022-09-07T23:06:42.190Z,97455.90
2022-09-07T23:09:16.160Z,97454.79
2022-09-07T23:11:46.247Z,97453.29
2022-09-07T23:14:20.565Z,97452.73
2022-09-07T23:16:49.581Z,97446.51
2022-09-07T23:19:20.559Z,97444.90
2022-09-07T23:21:48.626Z,97440.56
2022-09-07T23:24:19.317Z,97443.22
2022-09-07T23:26:47.670Z,97444.72
2022-09-07T23:29:16.702Z,97437.86
2022-09-07T23:31:46.641Z,97437.52
2022-09-07T23:34:14.650Z,97442.02
2022-09-07T23:36:42.661Z,97447.34
2022-09-07T23:39:11.141Z,97452.00
2022-09-07T23:41:39.449Z,97451.76
2022-09-07T23:44:07.566Z,97452.57
2022-09-07T23:46:35.984Z,97452.28
2022-09-07T23:49:03.920Z,97449.69
2022-09-07T23:51:31.934Z,97447.26
2022-09-07T23:53:59.938Z,97445.71
2022-09-07T23:56:28.097Z,97440.86
2022-09-07T23:58:56.051Z,97438.53
